Time;durP1;ratioP1;P1;durP2;ratioP2;P2;SDS_P1;SDS_P2;PMS_P1;PMS_P2;Temp;Humidity;BMP_temperature;BMP_pressure;BME280_temperature;BME280_humidity;BME280_pressure;Samples;Min_cycle;Max_cycle;Signal;HPM_P1;HPM_P2
2022/08/07 00:02:13;;;;;;;;;10.33;10.33;;;;;23.93;64.67;99680.31;6284124;20;3512746;-59
2022/08/07 00:05:03;;;;;;;;;11.00;11.00;;;;;23.94;64.39;99679.28;6286252;20;3510694;-58
2022/08/07 00:07:33;;;;;;;;;12.00;12.00;;;;;23.92;64.36;99684.09;6313735;20;2786734;-59
2022/08/07 00:10:09;;;;;;;;;12.67;10.67;;;;;23.69;65.58;99687.59;6316106;20;2786924;-59
2022/08/07 00:13:02;;;;;;;;;12.00;12.00;;;;;23.83;64.62;99681.41;6315968;20;3523189;-59
2022/08/07 00:15:51;;;;;;;;;11.33;10.33;;;;;23.68;65.15;99683.16;6321794;20;2783652;-59
2022/08/07 00:18:26;;;;;;;;;11.00;11.00;;;;;23.71;65.16;99677.31;6317436;20;3508558;-59
2022/08/07 00:21:05;;;;;;;;;13.00;12.67;;;;;23.61;65.05;99673.94;6316799;20;3523293;-59
2022/08/07 00:23:53;;;;;;;;;15.33;12.00;;;;;23.52;65.01;99683.25;6287872;20;2804444;-58
2022/08/07 00:26:23;;;;;;;;;13.67;12.00;;;;;23.54;65.64;99682.03;6321659;20;2787775;-59
2022/08/07 00:29:12;;;;;;;;;11.67;11.67;;;;;23.44;65.01;99682.25;6314978;20;3529419;-59
2022/08/07 00:31:43;;;;;;;;;9.00;9.00;;;;;23.37;65.72;99686.72;6318238;20;2712810;-59
2022/08/07 00:34:17;;;;;;;;;13.00;9.67;;;;;23.59;64.64;99685.09;6321525;20;2788814;-59
2022/08/07 00:36:48;;;;;;;;;12.33;10.00;;;;;23.43;65.11;99688.78;6315172;20;3507580;-59
2022/08/07 00:39:20;;;;;;;;;11.00;10.00;;;;;23.50;63.94;99701.75;6315519;20;3508758;-59
2022/08/07 00:41:57;;;;;;;;;11.33;8.33;;;;;23.50;64.32;99701.75;6319080;20;2773178;-58
2022/08/07 00:44:34;;;;;;;;;9.67;8.00;;;;;23.31;64.75;99703.03;6315750;20;2755453;-59
2022/08/07 00:47:08;;;;;;;;;10.33;10.33;;;;;23.42;64.60;99689.78;6316343;20;2798198;-59
2022/08/07 00:49:57;;;;;;;;;7.33;7.33;;;;;23.32;64.61;99693.75;6327053;20;2748208;-59
2022/08/07 00:52:46;;;;;;;;;9.00;9.00;;;;;23.36;63.83;99686.91;6325339;20;2750272;-59
2022/08/07 00:55:14;;;;;;;;;8.67;8.67;;;;;23.29;64.20;99689.50;6326043;20;2762768;-59
2022/08/07 00:57:53;;;;;;;;;8.00;8.00;;;;;23.21;64.33;99687.63;6337249;20;2750319;-59
2022/08/07 01:00:24;;;;;;;;;9.67;9.67;;;;;23.05;64.23;99703.28;6283725;20;3495111;-59
2022/08/07 01:02:54;;;;;;;;;8.40;8.40;;;;;23.13;64.12;99690.41;6340879;20;2739938;-59
2022/08/07 01:05:23;;;;;;;;;8.00;8.00;;;;;23.16;64.34;99695.53;6291789;20;2744010;-59
2022/08/07 01:07:53;;;;;;;;;6.00;6.00;;;;;22.98;64.66;99695.72;6340512;20;2741945;-59
2022/08/07 01:10:23;;;;;;;;;7.80;7.80;;;;;22.93;64.81;99695.41;6310559;20;2741395;-59
2022/08/07 01:12:52;;;;;;;;;9.00;9.00;;;;;23.07;64.49;99693.00;6313551;20;2749224;-59
2022/08/07 01:15:24;;;;;;;;;8.33;8.33;;;;;23.04;64.02;99696.06;6316490;20;2744034;-59
2022/08/07 01:18:15;;;;;;;;;8.33;8.33;;;;;22.92;64.96;99695.56;6313051;20;2750713;-59
2022/08/07 01:21:13;;;;;;;;;6.40;6.40;;;;;22.72;65.06;99697.78;6341318;20;2748166;-59
2022/08/07 01:23:54;;;;;;;;;6.40;6.40;;;;;22.92;64.29;99696.41;6308697;20;2734775;-59
2022/08/07 01:26:24;;;;;;;;;7.60;7.40;;;;;22.81;65.18;99696.78;6338829;20;2726305;-59
2022/08/07 01:28:54;;;;;;;;;8.67;8.00;;;;;22.75;64.70;99697.47;6314677;20;2735681;-60
2022/08/07 01:31:30;;;;;;;;;8.00;8.00;;;;;22.73;65.01;99694.06;6339346;20;2748181;-59
2022/08/07 01:34:13;;;;;;;;;7.00;7.00;;;;;22.66;65.74;99698.50;6307621;20;2748267;-59
2022/08/07 01:36:43;;;;;;;;;6.00;6.00;;;;;22.76;64.67;99693.69;6304895;20;2739844;-59
2022/08/07 01:39:21;;;;;;;;;7.60;6.00;;;;;22.83;64.83;99702.94;6339801;20;2741325;-58
2022/08/07 01:41:50;;;;;;;;;6.00;6.00;;;;;22.70;65.38;99699.88;6308487;20;2738799;-59
2022/08/07 01:44:36;;;;;;;;;7.20;7.00;;;;;22.67;65.21;99698.34;6336815;20;2727431;-57
2022/08/07 01:47:07;;;;;;;;;5.80;5.80;;;;;22.77;64.79;99695.41;6336822;20;2739896;-59
2022/08/07 01:49:56;;;;;;;;;6.80;6.80;;;;;22.82;64.64;99701.22;6309114;20;2736724;-56
2022/08/07 01:52:30;;;;;;;;;8.00;6.00;;;;;22.82;65.36;99709.44;6317494;20;2748242;-59
2022/08/07 01:55:03;;;;;;;;;6.40;6.40;;;;;22.92;64.51;99699.16;6340406;20;2741922;-59
2022/08/07 01:57:35;;;;;;;;;6.00;6.00;;;;;22.93;64.52;99700.88;6289747;20;2738993;-58
2022/08/07 02:00:28;;;;;;;;;7.40;7.40;;;;;22.81;65.31;99707.72;6338814;20;2741953;-59
2022/08/07 02:03:08;;;;;;;;;12.00;6.60;;;;;22.86;65.04;99705.31;6341183;20;2769111;-59
2022/08/07 02:06:02;;;;;;;;;7.00;7.00;;;;;22.72;65.04;99706.88;6304294;20;2743035;-59
2022/08/07 02:08:55;;;;;;;;;6.60;5.40;;;;;22.70;65.45;99700.72;6334581;20;2750295;-59
2022/08/07 02:11:25;;;;;;;;;5.20;5.20;;;;;23.03;64.30;99706.16;6303618;20;2732571;-58
2022/08/07 02:14:16;;;;;;;;;7.00;7.00;;;;;22.95;64.77;99698.78;6316039;20;2742994;-59
2022/08/07 02:17:07;;;;;;;;;8.00;6.60;;;;;22.97;64.61;99699.50;6334999;20;2748205;-59
2022/08/07 02:19:42;;;;;;;;;7.00;7.00;;;;;22.70;65.60;99700.72;6308016;20;2748229;-58
2022/08/07 02:22:33;;;;;;;;;6.00;6.00;;;;;22.52;66.18;99686.38;6282774;20;2739907;-59
2022/08/07 02:25:08;;;;;;;;;7.00;6.40;;;;;22.42;66.47;99697.47;6340936;20;2734623;-59
2022/08/07 02:27:49;;;;;;;;;7.20;7.20;;;;;22.60;65.63;99694.56;6337987;20;2746171;-59
2022/08/07 02:30:20;;;;;;;;;4.67;4.00;;;;;22.37;66.68;99699.88;6283072;20;2730608;-59
2022/08/07 02:32:52;;;;;;;;;6.60;5.60;;;;;22.14;68.42;99699.63;6340228;20;2748232;-59
2022/08/07 02:35:40;;;;;;;;;6.20;6.20;;;;;22.24;67.63;99704.97;6307642;20;2739827;-59
2022/08/07 02:38:36;;;;;;;;;4.40;4.40;;;;;22.54;66.08;99712.53;6338858;20;2754619;-59
2022/08/07 02:41:07;;;;;;;;;7.00;6.60;;;;;22.54;65.99;99707.06;6305178;20;2746089;-59
2022/08/07 02:43:42;;;;;;;;;5.80;5.80;;;;;22.40;67.08;99706.88;6344642;20;2744080;-59
2022/08/07 02:46:21;;;;;;;;;6.33;4.67;;;;;22.37;67.42;99716.28;6285963;20;2742023;-59
2022/08/07 02:48:53;;;;;;;;;7.00;7.00;;;;;22.84;65.29;99710.13;6343391;20;2742978;-59
2022/08/07 02:51:25;;;;;;;;;5.80;5.80;;;;;22.57;65.75;99723.13;6341982;20;2734630;-59
2022/08/07 02:54:17;;;;;;;;;6.20;6.20;;;;;22.75;65.77;99708.44;6343304;20;2738897;-59
2022/08/07 02:56:49;;;;;;;;;5.20;5.20;;;;;22.87;64.77;99717.13;6343741;20;2736718;-59
2022/08/07 02:59:24;;;;;;;;;7.00;7.00;;;;;22.76;65.09;99721.06;6341508;20;2742984;-58
2022/08/07 03:01:57;;;;;;;;;5.60;5.60;;;;;22.66;65.34;99714.91;6315138;20;2733645;-61
2022/08/07 03:04:31;;;;;;;;;6.60;6.00;;;;;22.63;65.86;99721.59;6343069;20;2738806;-61
2022/08/07 03:07:01;;;;;;;;;6.40;5.80;;;;;22.67;65.56;99719.34;6343212;20;2744063;-61
2022/08/07 03:09:40;;;;;;;;;5.00;4.20;;;;;22.67;65.47;99722.09;6343894;20;2736743;-61
2022/08/07 03:12:15;;;;;;;;;6.60;5.20;;;;;22.61;65.93;99733.72;6341590;20;2741954;-61
2022/08/07 03:15:00;;;;;;;;;7.00;7.00;;;;;22.60;65.60;99727.41;6344355;20;2744023;-61
2022/08/07 03:17:36;;;;;;;;;7.00;4.67;;;;;22.66;65.12;99717.66;6283606;20;2750293;-60
2022/08/07 03:20:23;;;;;;;;;4.60;4.60;;;;;22.68;65.80;99726.56;6344310;20;2745250;-61
2022/08/07 03:22:53;;;;;;;;;4.67;4.67;;;;;22.61;65.51;99728.25;6323351;20;2740880;-61
2022/08/07 03:25:25;;;;;;;;;4.40;4.00;;;;;22.62;65.56;99735.44;6344936;20;2744009;-61
2022/08/07 03:28:02;;;;;;;;;4.25;3.75;;;;;22.40;67.20;99731.50;6318746;20;2749344;-61
2022/08/07 03:31:17;;;;;;;;;3.40;3.40;;;;;22.32;67.99;99725.00;6316463;20;2748197;-61
2022/08/07 03:33:47;;;;;;;;;3.40;3.40;;;;;22.30;67.98;99726.19;6342042;20;2743989;-60
2022/08/07 03:36:20;;;;;;;;;4.40;4.20;;;;;22.56;66.92;99736.97;6343280;20;2738965;-60
2022/08/07 03:39:02;;;;;;;;;5.00;3.00;;;;;22.55;66.93;99743.50;6322206;20;2733593;-60
2022/08/07 03:41:34;;;;;;;;;2.67;2.67;;;;;22.67;66.16;99746.72;6318553;20;2735670;-59
2022/08/07 03:44:11;;;;;;;;;4.20;2.00;;;;;22.38;67.21;99742.63;6344743;20;2734672;-60
2022/08/07 03:46:43;;;;;;;;;3.80;2.60;;;;;22.53;66.90;99748.25;6341610;20;2730651;-60
2022/08/07 03:49:34;;;;;;;;;3.33;3.33;;;;;22.53;67.01;99753.75;6317325;20;2756513;-60
2022/08/07 03:52:05;;;;;;;;;3.00;1.40;;;;;22.48;67.45;99756.13;6337845;20;2733660;-60
2022/08/07 03:54:35;;;;;;;;;2.67;2.67;;;;;22.52;67.10;99755.63;6319564;20;2732557;-60
2022/08/07 03:57:26;;;;;;;;;3.00;3.00;;;;;22.39;68.06;99752.53;6342956;20;2748230;-60
2022/08/07 04:00:17;;;;;;;;;2.40;2.40;;;;;22.34;68.34;99743.97;6342393;20;2753402;-60
2022/08/07 04:02:58;;;;;;;;;2.00;2.00;;;;;22.48;67.91;99753.41;6285879;20;2737770;-60
2022/08/07 04:05:26;;;;;;;;;2.00;2.00;;;;;22.29;68.49;99751.84;6314716;20;2746086;-60
2022/08/07 04:08:12;;;;;;;;;3.20;3.20;;;;;22.33;69.00;99764.16;6343892;20;2737972;-60
2022/08/07 04:10:48;;;;;;;;;2.00;2.00;;;;;22.38;68.81;99760.91;6343007;20;2750382;-60
2022/08/07 04:13:39;;;;;;;;;4.00;3.00;;;;;22.26;68.99;99763.13;6311872;20;2752417;-60
2022/08/07 04:16:29;;;;;;;;;2.60;2.60;;;;;22.22;68.90;99762.59;6309730;20;2745124;-60
2022/08/07 04:19:02;;;;;;;;;2.20;2.00;;;;;22.10;69.17;99775.69;6344586;20;2741946;-60
2022/08/07 04:21:40;;;;;;;;;1.00;1.00;;;;;22.12;69.41;99773.66;6318481;20;2731578;-60
2022/08/07 04:24:28;;;;;;;;;2.80;1.20;;;;;22.26;68.83;99791.31;6340420;20;2724249;-60
2022/08/07 04:27:05;;;;;;;;;3.00;3.00;;;;;22.11;69.40;99774.66;6319609;20;2731569;-59
2022/08/07 04:29:55;;;;;;;;;3.00;3.00;;;;;22.18;69.76;99783.06;6344679;20;2730486;-59
2022/08/07 04:32:33;;;;;;;;;3.00;3.00;;;;;22.10;69.74;99781.16;6321344;20;2729508;-59
2022/08/07 04:35:06;;;;;;;;;3.00;2.00;;;;;22.31;69.59;99788.94;6341020;20;2744168;-60
2022/08/07 04:37:39;;;;;;;;;2.00;2.00;;;;;22.29;68.71;99792.88;6319512;20;2752470;-60
2022/08/07 04:40:28;;;;;;;;;3.00;2.67;;;;;22.31;69.33;99796.28;6319771;20;2731548;-59
2022/08/07 04:43:01;;;;;;;;;2.86;2.86;;;;;22.28;69.53;99802.97;6358344;20;3462788;-59
2022/08/07 04:46:07;;;;;;;;;2.00;2.00;;;;;22.26;69.48;99795.94;6312030;20;2744027;-60
2022/08/07 04:48:58;;;;;;;;;2.00;2.00;;;;;22.19;70.01;99806.69;6318420;20;2737904;-60
2022/08/07 04:52:26;;;;;;;;;2.00;2.00;;;;;22.26;69.89;99801.41;6318314;20;2748350;-60
2022/08/07 04:55:17;;;;;;;;;4.00;2.43;;;;;22.31;69.53;99807.25;6357324;20;3457046;-60
2022/08/07 04:58:24;;;;;;;;;2.33;2.33;;;;;22.27;70.23;99809.44;6314595;20;2753610;-60
2022/08/07 05:02:17;;;;;;;;;1.60;1.60;;;;;22.13;70.33;99808.16;6340689;20;2739907;-61
2022/08/07 05:05:05;;;;;;;;;3.20;2.00;;;;;22.08;70.57;99807.81;6334358;20;2750392;-61
2022/08/07 05:08:06;;;;;;;;;2.40;2.00;;;;;22.06;71.19;99817.19;6304626;20;2756523;-61
2022/08/07 05:10:44;;;;;;;;;2.67;2.67;;;;;22.23;70.46;99818.16;6286053;20;2723198;-60
2022/08/07 05:13:27;;;;;;;;;2.00;2.00;;;;;22.30;70.54;99821.91;6314139;20;2748607;-59
2022/08/07 05:16:20;;;;;;;;;3.00;2.00;;;;;22.19;71.17;99823.09;6340765;20;2744069;-62
2022/08/07 05:19:01;;;;;;;;;3.00;3.00;;;;;22.58;69.47;99825.25;6338221;20;2743009;-63
2022/08/07 05:21:35;;;;;;;;;2.20;2.20;;;;;22.43;69.55;99832.38;6340249;20;2753471;-62
2022/08/07 05:24:26;;;;;;;;;2.60;2.60;;;;;22.51;69.27;99838.75;6306724;20;2755477;-62
2022/08/07 05:27:14;;;;;;;;;2.00;2.00;;;;;22.63;68.07;99842.03;6328130;20;3446074;-63
2022/08/07 05:30:04;;;;;;;;;2.33;2.33;;;;;22.57;68.42;99837.22;6320750;20;2737806;-63
2022/08/07 05:32:34;;;;;;;;;2.20;2.20;;;;;22.76;67.16;99836.91;6339075;20;2748182;-62
2022/08/07 05:35:06;;;;;;;;;5.00;3.60;;;;;23.06;66.46;99840.03;6338920;20;2756543;-63
2022/08/07 05:37:36;;;;;;;;;2.00;2.00;;;;;23.22;66.05;99847.38;6306745;20;2744005;-63
2022/08/07 05:40:11;;;;;;;;;2.00;2.00;;;;;23.16;65.76;99848.06;6343249;20;2737881;-63
2022/08/07 05:42:47;;;;;;;;;3.00;3.00;;;;;23.31;64.95;99835.41;6319390;20;2726290;-62
2022/08/07 05:45:24;;;;;;;;;5.00;3.33;;;;;23.38;64.82;99836.41;6312312;20;2754854;-63
2022/08/07 05:48:14;;;;;;;;;3.00;3.00;;;;;23.46;64.81;99841.03;6318784;20;2737868;-64
2022/08/07 05:50:45;;;;;;;;;4.20;3.60;;;;;23.46;64.54;99843.78;6338949;20;2729419;-62
2022/08/07 05:53:19;;;;;;;;;4.00;4.00;;;;;23.45;63.77;99839.31;6337149;20;2754440;-61
2022/08/07 05:56:12;;;;;;;;;3.00;3.00;;;;;23.31;64.97;99846.34;6309188;20;2734629;-62
2022/08/07 05:58:47;;;;;;;;;4.20;3.20;;;;;23.51;64.13;99846.81;6342424;20;2744551;-60
2022/08/07 06:01:23;;;;;;;;;4.40;3.40;;;;;23.56;64.08;99844.41;6340888;20;2736717;-63
2022/08/07 06:03:56;;;;;;;;;3.00;3.00;;;;;23.47;64.44;99852.84;6341040;20;2743997;-64
2022/08/07 06:06:28;;;;;;;;;2.00;2.00;;;;;23.57;63.73;99850.78;6313455;20;2750370;-63
2022/08/07 06:09:02;;;;;;;;;4.60;3.40;;;;;23.21;64.71;99859.38;6335657;20;2746194;-64
2022/08/07 06:11:38;;;;;;;;;3.20;3.20;;;;;23.31;64.60;99854.56;6309059;20;2739832;-63
2022/08/07 06:14:08;;;;;;;;;3.00;3.00;;;;;23.59;63.26;99856.91;6337983;20;2744170;-65
2022/08/07 06:16:46;;;;;;;;;3.80;3.80;;;;;23.64;64.43;99851.78;6347226;20;2751348;-61
2022/08/07 06:19:24;;;;;;;;;4.60;3.00;;;;;23.69;63.39;99854.84;6321781;20;2746146;-60
2022/08/07 06:22:17;;;;;;;;;3.00;3.00;;;;;24.07;62.57;99855.97;6351052;20;2731630;-62
2022/08/07 06:24:58;;;;;;;;;1.60;1.60;;;;;23.84;61.96;99857.75;6356338;20;2748162;-61
2022/08/07 06:27:31;;;;;;;;;3.00;3.00;;;;;24.03;62.26;99856.50;6350461;20;2739870;-63
2022/08/07 06:30:20;;;;;;;;;3.40;3.40;;;;;24.21;61.34;99854.34;6322276;20;2749334;-61
2022/08/07 06:33:06;;;;;;;;;3.60;3.60;;;;;24.10;60.70;99860.25;6318753;20;2755559;-62
2022/08/07 06:35:46;;;;;;;;;4.40;4.40;;;;;24.25;61.17;99861.22;6320702;20;2746083;-62
2022/08/07 06:38:35;;;;;;;;;3.40;3.40;;;;;24.62;59.63;99862.41;6323208;20;2748243;-62
2022/08/07 06:41:49;;;;;;;;;4.00;4.00;;;;;24.34;60.67;99869.41;6320207;20;2756506;-63
2022/08/07 06:44:32;;;;;;;;;4.40;3.20;;;;;25.03;58.25;99872.25;6317826;20;2750457;-61
2022/08/07 06:47:03;;;;;;;;;4.00;4.00;;;;;25.18;57.01;99860.31;6316205;20;2756652;-60
2022/08/07 06:49:42;;;;;;;;;3.60;3.60;;;;;24.74;57.88;99871.94;6320049;20;2748202;-61
2022/08/07 06:52:35;;;;;;;;;3.00;3.00;;;;;25.04;57.41;99865.69;6318346;20;2753405;-59
2022/08/07 06:55:16;;;;;;;;;4.60;4.00;;;;;24.86;57.31;99863.28;6322167;20;2748234;-55
2022/08/07 06:58:10;;;;;;;;;5.00;4.00;;;;;24.71;57.83;99860.47;6315616;20;2756517;-55
2022/08/07 07:00:42;;;;;;;;;2.60;2.60;;;;;25.01;57.27;99861.44;6329523;20;2737900;-53
2022/08/07 07:03:13;;;;;;;;;6.20;3.60;;;;;24.93;56.87;99867.00;6318480;20;2754425;-62
2022/08/07 07:05:46;;;;;;;;;5.60;2.20;;;;;24.95;56.44;99867.66;6317784;20;2735786;-61
2022/08/07 07:08:34;;;;;;;;;4.00;4.00;;;;;24.65;57.15;99864.78;6350408;20;2748171;-62
2022/08/07 07:11:08;;;;;;;;;4.00;4.00;;;;;24.22;57.96;99867.03;6318993;20;2754418;-61
2022/08/07 07:13:58;;;;;;;;;5.00;3.00;;;;;24.25;57.46;99872.19;6318631;20;2748162;-61
2022/08/07 07:16:37;;;;;;;;;3.00;3.00;;;;;24.39;56.91;99867.81;6314046;20;2731550;-62
2022/08/07 07:19:31;;;;;;;;;3.60;3.60;;;;;24.44;56.74;99870.03;6349164;20;2755450;-62
2022/08/07 07:22:21;;;;;;;;;3.67;3.67;;;;;24.70;55.88;99872.50;6293420;20;2754433;-60
2022/08/07 07:25:13;;;;;;;;;4.00;3.00;;;;;24.56;55.92;99873.25;6349216;20;2750376;-62
2022/08/07 07:28:16;;;;;;;;;3.60;3.60;;;;;24.53;56.30;99875.31;6310723;20;2756533;-62
2022/08/07 07:31:20;;;;;;;;;6.00;5.00;;;;;24.60;56.19;99878.22;6315032;20;2742008;-62
2022/08/07 07:33:58;;;;;;;;;4.00;4.00;;;;;24.72;55.40;99876.78;6341671;20;2754585;-61
2022/08/07 07:36:31;;;;;;;;;2.67;2.67;;;;;24.88;55.21;99877.66;6285925;20;2748164;-62
2022/08/07 07:39:04;;;;;;;;;3.00;3.00;;;;;24.95;54.64;99873.16;6343969;20;2754470;-55
2022/08/07 07:41:37;;;;;;;;;3.20;3.00;;;;;24.87;55.10;99870.47;6311896;20;2746076;-47
2022/08/07 07:44:28;;;;;;;;;9.40;4.60;;;;;25.06;54.86;99874.63;6310765;20;2763789;-57
2022/08/07 07:46:59;;;;;;;;;3.67;3.67;;;;;25.32;54.11;99879.78;6289474;20;2747144;-52
2022/08/07 07:49:46;;;;;;;;;3.40;3.40;;;;;25.50;53.96;99872.03;6344713;20;2748214;-51
2022/08/07 07:52:38;;;;;;;;;6.60;5.20;;;;;25.18;53.47;99875.94;6310626;20;2743171;-49
2022/08/07 07:55:09;;;;;;;;;5.00;5.00;;;;;25.19;52.93;99872.16;6312742;20;2738796;-50
2022/08/07 07:57:42;;;;;;;;;8.00;4.40;;;;;25.59;52.38;99870.06;6341354;20;2741910;-58
2022/08/07 08:00:24;;;;;;;;;5.40;3.60;;;;;25.59;52.38;99870.06;6342656;20;2748243;-51
2022/08/07 08:03:08;;;;;;;;;4.40;2.40;;;;;25.65;52.48;99874.81;6311291;20;2754408;-54
2022/08/07 08:05:58;;;;;;;;;2.60;2.60;;;;;25.90;50.82;99891.09;6306477;20;2748181;-55
2022/08/07 08:08:31;;;;;;;;;3.20;3.00;;;;;26.14;49.79;99884.44;6309904;20;2748232;-53
2022/08/07 08:11:08;;;;;;;;;5.80;4.60;;;;;26.12;49.70;99886.53;6310669;20;2748180;-51
2022/08/07 08:13:48;;;;;;;;;4.60;4.60;;;;;25.61;50.46;99885.31;6311525;20;2747181;-52
2022/08/07 08:16:39;;;;;;;;;5.40;3.40;;;;;26.33;49.24;99881.13;6310733;20;2750300;-51
2022/08/07 08:19:27;;;;;;;;;3.40;3.00;;;;;25.79;49.97;99886.88;6309912;20;2746107;-53
2022/08/07 08:28:25;;;;;;;;;3.00;3.00;;;;;27.04;45.98;99889.59;6319823;20;2754457;-58
2022/08/07 08:31:19;;;;;;;;;3.00;3.00;;;;;27.04;45.49;99894.22;6342709;20;2735700;-57
2022/08/07 08:34:02;;;;;;;;;3.80;3.80;;;;;27.35;45.88;99893.94;6339207;20;2754421;-54
2022/08/07 08:36:35;;;;;;;;;4.40;4.40;;;;;27.31;44.66;99882.47;6309334;20;2734770;-56
2022/08/07 08:39:08;;;;;;;;;4.00;3.20;;;;;27.31;45.40;99879.69;6308673;20;2746083;-56
2022/08/07 08:42:01;;;;;;;;;2.20;2.20;;;;;27.49;44.80;99886.63;6305753;20;2753405;-54
2022/08/07 08:44:39;;;;;;;;;5.60;3.60;;;;;27.29;44.76;99887.31;6309982;20;2747124;-56
2022/08/07 08:47:31;;;;;;;;;6.60;4.80;;;;;26.99;45.99;99889.34;6306969;20;2743014;-53
2022/08/07 08:50:53;;;;;;;;;6.00;5.00;;;;;26.55;47.15;99882.06;6309155;20;2750756;-53
2022/08/07 08:53:43;;;;;;;;;4.00;4.00;;;;;26.28;47.19;99884.44;6282884;20;2751363;-55
2022/08/07 08:56:36;;;;;;;;;3.00;2.80;;;;;26.52;47.44;99887.09;6338001;20;2752413;-57
2022/08/07 08:59:36;;;;;;;;;4.00;4.00;;;;;26.87;47.34;99897.25;6280519;20;2740909;-53
2022/08/07 09:02:44;;;;;;;;;3.00;3.00;;;;;26.63;47.34;99886.59;6338989;20;2746164;-54
2022/08/07 09:05:47;;;;;;;;;2.80;2.80;;;;;26.80;47.63;99899.06;6309195;20;2735699;-54
2022/08/07 09:09:02;;;;;;;;;4.00;4.00;;;;;26.52;47.95;99896.22;6340926;20;2745068;-53
2022/08/07 09:12:18;;;;;;;;;3.80;3.80;;;;;26.56;48.25;99896.66;6304787;20;2754420;-52
2022/08/07 09:15:01;;;;;;;;;3.60;3.60;;;;;26.45;48.83;99893.34;6306419;20;2753431;-54
2022/08/07 09:18:15;;;;;;;;;6.00;5.20;;;;;26.62;48.50;99888.50;6309283;20;2738401;-54
2022/08/07 09:21:23;;;;;;;;;4.20;3.00;;;;;26.58;48.20;99898.19;6313818;20;2748248;-58
2022/08/07 09:24:31;;;;;;;;;3.40;3.00;;;;;26.55;48.68;99889.47;6310643;20;2752410;-56
2022/08/07 09:28:00;;;;;;;;;5.00;4.00;;;;;26.63;49.10;99889.34;6307692;20;2746187;-57
2022/08/07 09:31:09;;;;;;;;;5.00;5.00;;;;;26.43;49.73;99894.56;6308389;20;1908537;-51
2022/08/07 09:34:26;;;;;;;;;4.60;4.60;;;;;26.62;49.68;99884.88;6307508;20;2748352;-55
2022/08/07 09:37:27;;;;;;;;;3.20;3.20;;;;;26.46;48.85;99884.03;6306693;20;2753410;-60
2022/08/07 09:40:53;;;;;;;;;3.00;3.00;;;;;26.44;48.68;99886.13;6309829;20;2756652;-61
2022/08/07 09:43:54;;;;;;;;;2.40;2.40;;;;;26.63;48.66;99883.84;6309447;20;2750275;-56
2022/08/07 09:47:40;;;;;;;;;4.20;4.20;;;;;26.89;48.59;99884.13;6306494;20;2747265;-57
2022/08/07 09:51:09;;;;;;;;;4.60;4.60;;;;;26.72;48.81;99882.66;6306677;20;2738806;-53
2022/08/07 09:54:02;;;;;;;;;6.00;6.00;;;;;26.80;49.03;99876.19;6287492;20;2748156;-58
2022/08/07 09:57:09;;;;;;;;;5.00;4.00;;;;;26.66;48.44;99873.28;6338756;20;2750674;-58
2022/08/07 10:00:10;;;;;;;;;4.80;4.00;;;;;26.79;48.29;99868.97;6305906;20;2748315;-52
2022/08/07 10:03:54;;;;;;;;;5.80;3.20;;;;;27.09;48.30;99869.69;6308498;20;2745101;-53
2022/08/07 10:07:12;;;;;;;;;4.80;4.80;;;;;27.49;47.26;99873.72;6303197;20;2748246;-60
2022/08/07 10:10:52;;;;;;;;;6.60;5.00;;;;;27.53;47.91;99865.88;6308125;20;2742007;-56
2022/08/07 10:14:20;;;;;;;;;4.40;4.20;;;;;27.06;48.16;99861.81;6310215;20;2746168;-57
2022/08/07 10:17:29;;;;;;;;;4.00;4.00;;;;;27.13;50.05;99858.09;6285796;20;2742126;-58
2022/08/07 10:20:50;;;;;;;;;5.40;4.40;;;;;27.10;50.97;99864.00;6341090;20;2750331;-59
2022/08/07 10:23:52;;;;;;;;;6.60;4.60;;;;;27.05;49.90;99860.13;6307458;20;2748205;-56
2022/08/07 10:27:16;;;;;;;;;7.00;5.00;;;;;26.74;49.91;99855.78;6280729;20;2739864;-58
2022/08/07 10:30:17;;;;;;;;;4.40;4.40;;;;;27.20;48.89;99858.19;6337891;20;2748214;-55
2022/08/07 10:33:30;;;;;;;;;5.60;4.40;;;;;27.19;47.81;99856.47;6313024;20;2745188;-57
2022/08/07 10:37:26;;;;;;;;;4.60;4.60;;;;;27.22;49.21;99853.31;6338731;20;2749288;-56
2022/08/07 10:40:34;;;;;;;;;5.00;5.00;;;;;27.51;48.60;99852.25;6309725;20;2739961;-57
2022/08/07 10:43:35;;;;;;;;;9.80;5.20;;;;;27.64;48.18;99847.91;6307313;20;2756519;-55
2022/08/07 10:46:19;;;;;;;;;5.00;5.00;;;;;27.29;48.15;99851.47;6304900;20;2727375;-58
2022/08/07 10:49:37;;;;;;;;;6.00;4.40;;;;;27.60;47.35;99846.63;6339243;20;2748204;-59
2022/08/07 10:52:50;;;;;;;;;3.00;1.20;;;;;27.62;47.55;99839.84;6306038;20;2739882;-59
2022/08/07 10:55:57;;;;;;;;;4.80;4.80;;;;;27.41;46.71;99843.53;6340805;20;2742952;-56
2022/08/07 10:59:26;;;;;;;;;4.40;4.40;;;;;27.42;47.69;99844.38;6308855;20;2736805;-59
2022/08/07 11:02:15;;;;;;;;;5.00;3.00;;;;;27.72;46.47;99840.31;6307617;20;2632544;-57
2022/08/07 11:05:30;;;;;;;;;3.60;3.60;;;;;27.95;45.70;99839.22;6342504;20;2748276;-57
2022/08/07 11:09:04;;;;;;;;;5.33;5.33;;;;;27.91;45.36;99833.28;6287112;20;2744034;-55
2022/08/07 11:12:00;;;;;;;;;3.80;3.60;;;;;27.73;45.46;99842.03;6341007;20;2746159;-58
2022/08/07 11:14:56;;;;;;;;;5.00;5.00;;;;;27.81;45.84;99837.47;6313744;20;2628489;-58
2022/08/07 11:18:09;;;;;;;;;3.25;3.25;;;;;28.20;44.40;99823.84;6343225;20;2774277;-56
2022/08/07 11:20:55;;;;;;;;;5.00;4.60;;;;;28.69;44.48;99834.88;6341132;20;2753360;-57
2022/08/07 11:24:08;;;;;;;;;3.80;3.80;;;;;28.16;44.57;99827.22;6311205;20;2753416;-57
2022/08/07 11:27:51;;;;;;;;;4.80;4.80;;;;;28.14;45.92;99827.44;6314807;20;2742334;-58
2022/08/07 11:31:07;;;;;;;;;5.00;5.00;;;;;27.83;45.72;99819.63;6285333;20;2739938;-62
2022/08/07 11:34:21;;;;;;;;;7.20;5.00;;;;;28.39;45.79;99829.66;6345137;20;2736706;-60
2022/08/07 11:37:12;;;;;;;;;6.00;5.00;;;;;28.51;44.30;99816.97;6290577;20;2740871;-61
2022/08/07 11:40:21;;;;;;;;;4.00;4.00;;;;;28.42;45.04;99823.72;6319670;20;2756582;-62
2022/08/07 11:43:28;;;;;;;;;4.00;4.00;;;;;28.45;44.30;99813.13;6314690;20;2731579;-62
2022/08/07 11:47:12;;;;;;;;;4.00;4.00;;;;;28.54;44.08;99802.78;6344275;20;2728366;-62
2022/08/07 11:50:42;;;;;;;;;3.40;3.40;;;;;28.20;44.71;99799.00;6309905;20;2754412;-61
2022/08/07 11:54:19;;;;;;;;;5.00;4.33;;;;;28.43;44.51;99797.78;6288126;20;2737819;-62
2022/08/07 11:57:05;;;;;;;;;6.40;5.00;;;;;29.85;40.82;99801.31;6336351;20;2752382;-62
2022/08/07 12:00:05;;;;;;;;;4.80;4.80;;;;;30.25;39.99;99796.47;6311452;20;2742958;-62
2022/08/07 12:03:29;;;;;;;;;6.00;6.00;;;;;29.89;41.32;99786.81;6339008;20;2746257;-59
2022/08/07 12:07:00;;;;;;;;;3.80;3.40;;;;;30.45;40.25;99785.31;6315179;20;2738799;-60
2022/08/07 12:10:18;;;;;;;;;4.67;4.67;;;;;30.06;41.51;99783.56;6284911;20;2734740;-61
2022/08/07 12:13:03;;;;;;;;;7.00;5.00;;;;;29.79;41.76;99778.09;6318592;20;2736695;-59
2022/08/07 12:16:06;;;;;;;;;8.00;6.00;;;;;29.90;41.64;99777.44;6319996;20;2732677;-61
2022/08/07 12:19:11;;;;;;;;;5.60;5.60;;;;;29.63;41.45;99767.50;6340120;20;2744112;-60
2022/08/07 12:22:07;;;;;;;;;4.00;4.00;;;;;29.83;40.88;99767.44;6286359;20;2756634;-61
2022/08/07 12:29:22;;;;;;;;;6.67;6.67;;;;;29.16;43.06;99759.25;6314639;20;2733673;-61
2022/08/07 12:32:33;;;;;;;;;6.00;6.00;;;;;29.27;42.31;99754.97;6313731;20;2743023;-60
2022/08/07 12:35:08;;;;;;;;;5.80;5.00;;;;;29.00;42.10;99746.69;6338375;20;2742995;-59
2022/08/07 12:37:46;;;;;;;;;7.67;7.00;;;;;29.25;42.24;99748.81;6278791;20;2734825;-60
2022/08/07 12:40:38;;;;;;;;;8.00;8.00;;;;;29.32;42.49;99741.38;6314528;20;2736870;-60
2022/08/07 12:43:24;;;;;;;;;8.00;7.00;;;;;29.52;42.06;99750.47;6312266;20;2736751;-60
2022/08/07 12:46:55;;;;;;;;;11.67;7.67;;;;;30.03;41.99;99742.47;6318237;20;2769136;-58
2022/08/07 12:50:01;;;;;;;;;9.33;8.00;;;;;29.87;41.81;99741.88;6314787;20;2756714;-55
2022/08/07 12:53:04;;;;;;;;;7.00;7.00;;;;;29.59;42.28;99738.53;6319579;20;2734712;-60
2022/08/07 12:56:21;;;;;;;;;7.67;7.67;;;;;29.46;42.54;99723.66;6320790;20;2732580;-60
2022/08/07 12:58:54;;;;;;;;;7.00;7.00;;;;;29.38;42.20;99725.81;6322048;20;2737801;-60
2022/08/07 13:01:34;;;;;;;;;7.00;7.00;;;;;29.73;41.78;99726.41;6318336;20;2734736;-60
2022/08/07 13:05:18;;;;;;;;;8.00;8.00;;;;;29.93;41.06;99726.31;6317103;20;2748252;-61
2022/08/07 13:08:29;;;;;;;;;11.00;8.00;;;;;31.12;39.65;99737.72;6315550;20;2769079;-59
2022/08/07 13:11:40;;;;;;;;;5.00;5.00;;;;;31.65;37.40;99732.50;6316482;20;2746109;-60